Shell Beach, California
Current Conditions -  °F | °C
As of 9:56 PM on Wednesday 22 Oct 2014 (Local Time) from KSBP Reporting Station
Clear Clear  
Wind Chill: 61°   Ceiling: Unl
Heat Index: 61°   Visibility: 10mi
Dew Point: 48°   Wind: 3mph
Humidity: 62%   Direction: 130°SE
Pressure: 29.97"   Gusts: NA
Location:  35.1597°N, 120.657°W
Report Text: KSBP 230456Z AUTO 13003KT 10SM CLR 16/09 A2997 RMK AO2 SLP148 T01610089
Loading
Personal Weather Stations






























Interactive Weather Map
Tropical Storm Tracking
New forecast layout! Learn more

10-Day Weather Forecast

Advertisements
Track Severe Weather on mobile